TimeCDT,TemperatureF,Dew PointF,Humidity,Sea Level PressureIn,VisibilityMPH,Wind Direction,Wind SpeedMPH,Gust SpeedMPH,PrecipitationIn,Events,Conditions,WindDirDegrees,DateUTC
12:03 AM,53.6,51.8,94,29.90,10.0,NNE,15.0,21.9,N/A,,Overcast,20,2013-05-10 05:03:00
12:16 AM,53.6,51.8,94,29.90,10.0,North,13.8,-,N/A,,Overcast,10,2013-05-10 05:16:00
12:54 AM,54.0,51.1,90,29.91,10.0,NNE,16.1,-,N/A,,Overcast,20,2013-05-10 05:54:00
1:06 AM,53.6,51.8,94,29.91,10.0,NNE,13.8,-,N/A,,Overcast,20,2013-05-10 06:06:00
1:54 AM,54.0,50.0,86,29.91,10.0,NNE,13.8,-,N/A,,Overcast,20,2013-05-10 06:54:00
2:05 AM,53.6,51.8,94,29.91,10.0,NNE,12.7,-,N/A,,Overcast,20,2013-05-10 07:05:00
2:42 AM,53.6,50.0,88,29.91,10.0,North,12.7,-,N/A,,Overcast,10,2013-05-10 07:42:00
2:54 AM,52.0,50.0,93,29.91,8.0,North,15.0,-,N/A,,Overcast,360,2013-05-10 07:54:00
3:03 AM,51.8,50.0,94,29.91,6.0,North,16.1,-,N/A,,Overcast,360,2013-05-10 08:03:00
3:22 AM,51.8,50.0,94,29.92,10.0,North,17.3,-,N/A,,Overcast,360,2013-05-10 08:22:00
3:54 AM,51.1,48.9,92,29.93,10.0,North,16.1,-,N/A,,Overcast,10,2013-05-10 08:54:00
4:27 AM,50.0,46.4,87,29.94,10.0,NNE,17.3,25.3,N/A,,Overcast,20,2013-05-10 09:27:00
4:54 AM,50.0,46.9,89,29.96,10.0,NNE,13.8,-,N/A,,Overcast,30,2013-05-10 09:54:00
5:54 AM,48.9,45.0,86,29.96,10.0,NNE,13.8,-,N/A,,Overcast,20,2013-05-10 10:54:00
6:54 AM,46.4,44.6,93,29.97,10.0,North,15.0,-,N/A,,Overcast,10,2013-05-10 11:54:00
7:54 AM,46.4,44.6,93,29.99,10.0,North,12.7,-,N/A,,Overcast,10,2013-05-10 12:54:00
8:54 AM,46.9,43.0,86,30.01,10.0,North,11.5,-,N/A,,Overcast,10,2013-05-10 13:54:00
9:54 AM,48.0,43.0,83,30.02,10.0,North,12.7,-,N/A,,Overcast,10,2013-05-10 14:54:00
10:54 AM,50.0,44.1,80,30.02,10.0,NNE,13.8,-,N/A,,Overcast,20,2013-05-10 15:54:00
11:54 AM,51.8,46.4,82,30.02,10.0,North,11.5,-,N/A,,Overcast,360,2013-05-10 16:54:00
12:43 PM,57.2,48.2,72,30.02,10.0,NNE,9.2,-,N/A,,Overcast,20,2013-05-10 17:43:00
12:54 PM,55.9,48.0,75,30.02,10.0,North,9.2,-,N/A,,Overcast,10,2013-05-10 17:54:00
1:54 PM,60.1,50.0,69,30.01,10.0,North,10.4,-,N/A,,Overcast,350,2013-05-10 18:54:00
2:19 PM,60.8,50.0,68,30.00,10.0,North,6.9,-,N/A,,Mostly Cloudy,360,2013-05-10 19:19:00
2:54 PM,62.1,50.0,65,30.00,10.0,NNW,8.1,-,N/A,,Overcast,340,2013-05-10 19:54:00
3:54 PM,64.0,48.9,58,29.98,10.0,NNW,5.8,-,N/A,,Overcast,330,2013-05-10 20:54:00
4:54 PM,63.0,48.9,60,29.97,10.0,North,6.9,-,N/A,,Overcast,10,2013-05-10 21:54:00
5:54 PM,64.0,48.0,56,29.97,10.0,NNE,6.9,-,N/A,,Scattered Clouds,20,2013-05-10 22:54:00
6:54 PM,63.0,46.0,54,29.96,10.0,NW,4.6,-,N/A,,Clear,310,2013-05-10 23:54:00
7:54 PM,60.1,48.9,67,29.96,10.0,NNW,5.8,-,N/A,,Mostly Cloudy,330,2013-05-11 00:54:00
8:54 PM,59.0,46.0,62,29.97,10.0,WNW,4.6,-,N/A,,Clear,290,2013-05-11 01:54:00
9:54 PM,54.0,48.0,80,29.99,10.0,Calm,Calm,-,N/A,,Clear,0,2013-05-11 02:54:00
10:54 PM,51.1,48.0,89,29.98,10.0,Calm,Calm,-,N/A,,Clear,0,2013-05-11 03:54:00
11:54 PM,50.0,46.9,89,29.97,10.0,Calm,Calm,-,N/A,,Clear,0,2013-05-11 04:54:00